Temp: 3.9°C   Baro: 1034.2mb
  Wind: 0.9mph   Dir: SSW (196°)
  Rain: 0.0mm (0.0mm/hr)
  Solar: 0W/m2  Hum: 85%

Historic data

Bath Spa Weather Station Historical Data
Daily Summary for December 02, 2021 Units:  English    Metric   Both
Daily Weekly Monthly Yearly Custom
  High: Low: Average:
Temperature: 42.5 °F 30.2 °F 35.1 °F
Dew Point: 35.2 °F 28.2 °F 31.3 °F
Humidity: 92% 67.4% 83%
Wind Speed: 10.4mph 0mph 1.1mph
Wind Gust: 19mph - -
Wind- - NW
Pressure: 30.03 in 29.86 in -
Precipitation: 0.02 in    
Historical Graphs
 
 
Tabular Data for December 02, 2021
Time Temperature Dew Point Pressure Wind Wind Speed Wind Gust Humidity Rainfall Rate (Hourly) solar
00:09 35.1 °F 30.9 °F 29.86 in Calm     82% 0.00 in 0 W/m2
00:14 34.9 °F 30.7 °F 29.86 in Calm     82% 0.00 in 0 W/m2
00:19 34.6 °F 30.8 °F 29.87 in Calm     83% 0.00 in 0 W/m2
00:24 34.5 °F 30.7 °F 29.87 in Calm     83% 0.00 in 0 W/m2
00:29 34.4 °F 30.6 °F 29.86 in Calm     83% 0.00 in 0 W/m2
00:34 34.2 °F 30.8 °F 29.87 in Calm     84% 0.00 in 0 W/m2
00:39 34 °F 30.6 °F 29.87 in Calm     84% 0.00 in 0 W/m2
00:44 33.9 °F 30.5 °F 29.87 in Calm     84% 0.00 in 0 W/m2
00:49 33.6 °F 30.2 °F 29.87 in Calm     84% 0.00 in 0 W/m2
00:54 33.4 °F 30.4 °F 29.87 in Calm     85% 0.00 in 0 W/m2
00:59 33.3 °F 30.2 °F 29.87 in Calm     85% 0.00 in 0 W/m2
01:04 33 °F 29.9 °F 29.87 in Calm     85% 0.00 in 0 W/m2
01:09 32.7 °F 29.8 °F 29.87 in Calm     85.4% 0.00 in 0 W/m2
01:14 32.7 °F 29.8 °F 29.87 in Calm     86% 0.00 in 0 W/m2
01:19 32.7 °F 29.8 °F 29.87 in Calm     86% 0.00 in 0 W/m2
01:24 32.5 °F 29.7 °F 29.87 in Calm     86% 0.00 in 0 W/m2
01:29 32.5 °F 29.7 °F 29.87 in Calm     86.4% 0.00 in 0 W/m2
01:34 32.4 °F 29.8 °F 29.87 in Calm     87% 0.00 in 0 W/m2
01:39 32.2 °F 29.7 °F 29.87 in Calm     87% 0.00 in 0 W/m2
01:44 32 °F 29.5 °F 29.88 in Calm     87% 0.00 in 0 W/m2
01:49 31.8 °F 29.3 °F 29.88 in Calm     87% 0.00 in 0 W/m2
01:54 31.7 °F 29.2 °F 29.88 in Calm     87% 0.00 in 0 W/m2
01:59 31.6 °F 29.3 °F 29.88 in Calm     87.8% 0.00 in 0 W/m2
02:04 31.6 °F 29.3 °F 29.88 in Calm     88% 0.00 in 0 W/m2
02:09 31.5 °F 29.1 °F 29.88 in Calm     88% 0.00 in 0 W/m2
02:14 31.5 °F 29.1 °F 29.88 in Calm     88% 0.00 in 0 W/m2
02:19 31.4 °F 29 °F 29.88 in Calm     88% 0.00 in 0 W/m2
02:24 31.3 °F 28.9 °F 29.88 in Calm     88% 0.00 in 0 W/m2
02:29 31.3 °F 28.9 °F 29.88 in Calm     88% 0.00 in 0 W/m2
02:34 31.2 °F 28.9 °F 29.89 in Calm     88% 0.00 in 0 W/m2
02:39 31.1 °F 28.9 °F 29.89 in Calm     88% 0.00 in 0 W/m2
02:44 30.9 °F 28.8 °F 29.89 in Calm     88.4% 0.00 in 0 W/m2
02:49 30.7 °F 28.8 °F 29.89 in Calm     89% 0.00 in 0 W/m2
02:54 30.7 °F 28.8 °F 29.89 in Calm     89% 0.00 in 0 W/m2
02:59 30.7 °F 28.8 °F 29.89 in Calm     89% 0.00 in 0 W/m2
03:04 30.6 °F 28.6 °F 29.89 in Calm     89% 0.00 in 0 W/m2
03:09 30.4 °F 28.4 °F 29.89 in Calm     89% 0.00 in 0 W/m2
03:14 30.3 °F 28.3 °F 29.90 in Calm     89% 0.00 in 0 W/m2
03:19 30.2 °F 28.2 °F 29.90 in Calm     89% 0.00 in 0 W/m2
03:24 30.2 °F 28.2 °F 29.90 in Calm     89% 0.00 in 0 W/m2
03:29 30.2 °F 28.2 °F 29.90 in Calm     89% 0.00 in 0 W/m2
03:34 30.3 °F 28.3 °F 29.89 in Calm     89% 0.00 in 0 W/m2
03:39 30.4 °F 28.4 °F 29.89 in Calm     89% 0.00 in 0 W/m2
03:44 30.6 °F 28.9 °F 29.89 in Calm     90% 0.00 in 0 W/m2
03:49 30.6 °F 28.9 °F 29.89 in Calm     90% 0.00 in 0 W/m2
03:54 30.6 °F 28.9 °F 29.89 in Calm     90% 0.00 in 0 W/m2
03:59 30.6 °F 28.9 °F 29.89 in Calm     90% 0.00 in 0 W/m2
04:04 30.6 °F 28.9 °F 29.89 in Calm     90% 0.00 in 0 W/m2
04:09 30.5 °F 28.8 °F 29.89 in Calm     90% 0.00 in 0 W/m2
04:14 30.4 °F 28.8 °F 29.89 in Calm     90% 0.00 in 0 W/m2
04:19 30.4 °F 28.8 °F 29.89 in Calm     90% 0.00 in 0 W/m2
04:24 30.4 °F 28.8 °F 29.89 in Calm     90% 0.00 in 0 W/m2
04:29 30.4 °F 28.8 °F 29.89 in Calm     90% 0.00 in 0 W/m2
04:34 30.4 °F 28.8 °F 29.89 in Calm     90% 0.00 in 0 W/m2
04:39 30.3 °F 28.7 °F 29.88 in Calm     90% 0.00 in 0 W/m2
04:44 30.3 °F 28.7 °F 29.88 in Calm     90% 0.00 in 0 W/m2
04:49 30.4 °F 28.8 °F 29.89 in Calm     90.4% 0.00 in 0 W/m2
04:54 30.6 °F 29.1 °F 29.89 in Calm     91% 0.00 in 0 W/m2
04:59 30.6 °F 29.1 °F 29.89 in Calm     91% 0.00 in 0 W/m2
05:04 30.6 °F 29.1 °F 29.89 in Calm     91% 0.00 in 0 W/m2
05:09 30.6 °F 29.2 °F 29.89 in Calm     91% 0.00 in 0 W/m2
05:14 30.7 °F 29.3 °F 29.89 in Calm     91% 0.00 in 0 W/m2
05:19 31 °F 29.6 °F 29.89 in Calm     91% 0.00 in 0 W/m2
05:24 31.4 °F 29.9 °F 29.89 in Calm     91% 0.00 in 0 W/m2
05:29 31.5 °F 30 °F 29.89 in Calm     91% 0.00 in 0 W/m2
05:34 31.6 °F 30.1 °F 29.89 in Calm     91% 0.00 in 0 W/m2
05:39 31.6 °F 30.2 °F 29.89 in Calm     91% 0.00 in 0 W/m2
05:44 31.8 °F 30.4 °F 29.89 in Calm     91% 0.00 in 0 W/m2
05:49 31.8 °F 30.4 °F 29.89 in Calm     91% 0.00 in 0 W/m2
05:54 31.8 °F 30.4 °F 29.89 in Calm     91% 0.00 in 0 W/m2
05:59 32 °F 30.6 °F 29.89 in Calm     91% 0.00 in 0 W/m2
06:04 32 °F 30.6 °F 29.89 in Calm     91% 0.00 in 0 W/m2
06:09 32 °F 30.6 °F 29.90 in Calm     91% 0.00 in 0 W/m2
06:14 32 °F 30.6 °F 29.90 in Calm     91% 0.00 in 0 W/m2
06:19 32.1 °F 30.6 °F 29.90 in Calm     91% 0.00 in 0 W/m2
06:24 32.2 °F 30.8 °F 29.90 in Calm     91.2% 0.00 in 0 W/m2
06:29 32.4 °F 31.1 °F 29.90 in Calm     91.8% 0.00 in 0 W/m2
06:34 32.5 °F 31.3 °F 29.90 in Calm     92% 0.00 in 0 W/m2
06:39 32.5 °F 31.3 °F 29.90 in Calm     92% 0.00 in 0 W/m2
06:44 32.5 °F 31.3 °F 29.90 in Calm     91.8% 0.00 in 0 W/m2
06:49 32.5 °F 31.3 °F 29.90 in Calm     92% 0.00 in 0 W/m2
06:54 32.7 °F 31.5 °F 29.91 in Calm     92% 0.00 in 0 W/m2
06:59 32.7 °F 31.5 °F 29.91 in Calm     92% 0.00 in 0 W/m2
07:04 32.9 °F 31.6 °F 29.91 in Calm     92% 0.00 in 0 W/m2
07:09 32.8 °F 31.6 °F 29.91 in Calm     92% 0.00 in 0 W/m2
07:14 32.9 °F 31.6 °F 29.91 in Calm     92% 0.00 in 0 W/m2
07:19 32.9 °F 31.6 °F 29.91 in Calm     92% 0.00 in 0 W/m2
07:24 33.1 °F 31.8 °F 29.91 in Calm     92% 0.00 in 0 W/m2
07:29 33.1 °F 31.8 °F 29.91 in Calm     92% 0.00 in 0 W/m2
07:34 33.1 °F 31.8 °F 29.91 in Calm     92% 0.00 in 0 W/m2
07:39 32.9 °F 31.6 °F 29.91 in Calm     92% 0.00 in 0 W/m2
07:44 32.8 °F 31.6 °F 29.91 in Calm     92% 0.00 in 0 W/m2
07:49 32.9 °F 31.6 °F 29.91 in Calm     92% 0.00 in 0 W/m2
07:54 33 °F 31.7 °F 29.92 in Calm     92% 0.00 in 0 W/m2
07:59 33.1 °F 31.8 °F 29.92 in Calm     92% 0.00 in 5 W/m2
08:04 33.1 °F 31.8 °F 29.93 in Calm     92% 0.00 in 7 W/m2
08:09 33.1 °F 31.8 °F 29.93 in Calm     92% 0.00 in 7 W/m2
08:14 33.1 °F 31.8 °F 29.93 in Calm     92% 0.00 in 9 W/m2
08:19 33.1 °F 31.8 °F 29.93 in Calm     92% 0.00 in 11 W/m2
08:24 33.1 °F 31.8 °F 29.93 in Calm     92% 0.00 in 12 W/m2
08:29 33.1 °F 31.8 °F 29.93 in Calm     92% 0.00 in 14 W/m2
08:34 33.2 °F 31.9 °F 29.93 in Calm     92% 0.00 in 16 W/m2
08:39 33.5 °F 32.3 °F 29.93 in Calm     92% 0.00 in 18 W/m2
08:44 33.8 °F 32.5 °F 29.94 in Calm     92% 0.00 in 19 W/m2
08:49 34.1 °F 32.9 °F 29.94 in Calm     92% 0.00 in 19 W/m2
08:54 34.5 °F 33.2 °F 29.94 in Calm     92% 0.00 in 19 W/m2
08:59 35 °F 33.7 °F 29.95 in Calm     92% 0.00 in 21 W/m2
09:04 35.2 °F 34 °F 29.95 in Calm     92% 0.00 in 21 W/m2
09:09 35.9 °F 34.5 °F 29.95 in Calm     91.6% 0.00 in 23 W/m2
09:14 36.7 °F 35.2 °F 29.95 in Calm   1 mph 90.8% 0.00 in 23 W/m2
09:19 37.2 °F 35.2 °F 29.95 in NNW 3 mph 7 mph 89% 0.00 in 23 W/m2
09:24 37.6 °F 34.9 °F 29.95 in NNW 2.6 mph 8 mph 86.8% 0.00 in 25 W/m2
09:29 37.9 °F 34.7 °F 29.95 in NW 1.3 mph 7 mph 85.2% 0.00 in 28 W/m2
09:34 37.9 °F 34.3 °F 29.95 in NW 3.8 mph 10 mph 84% 0.00 in 33 W/m2
09:39 38.2 °F 34.5 °F 29.96 in NW 2.7 mph 10 mph 83.2% 0.00 in 40 W/m2
09:44 38.5 °F 34.6 °F 29.96 in NNW 2.4 mph 12 mph 82.8% 0.00 in 49 W/m2
09:49 38.5 °F 34.3 °F 29.96 in NNW 5.4 mph 12 mph 82% 0.00 in 58 W/m2
09:54 38.7 °F 34.2 °F 29.96 in North 5.6 mph 11 mph 81% 0.00 in 65 W/m2
09:59 38.7 °F 33.8 °F 29.97 in NNW 9.5 mph 12 mph 79.6% 0.00 in 74 W/m2
10:04 38.8 °F 33.7 °F 29.97 in NNW 6.2 mph 13 mph 79% 0.00 in 86 W/m2
10:09 38.8 °F 33.4 °F 29.97 in NNW 6 mph 13 mph 78% 0.00 in 97 W/m2
10:14 38.8 °F 33.4 °F 29.97 in NW 6.4 mph 13 mph 78% 0.00 in 104 W/m2
10:19 38.9 °F 33.5 °F 29.97 in NW 5.1 mph 11 mph 78% 0.00 in 113 W/m2
10:24 39 °F 33.6 °F 29.97 in NW 4.5 mph 12 mph 78% 0.00 in 123 W/m2
10:29 39.1 °F 33.4 °F 29.97 in NW 3.7 mph 11 mph 77% 0.00 in 130 W/m2
10:34 39.4 °F 33.4 °F 29.97 in NW 6.6 mph 13 mph 76.6% 0.00 in 141 W/m2
10:39 39.3 °F 33.1 °F 29.97 in NNW 4.2 mph 13 mph 75.4% 0.00 in 148 W/m2
10:44 39.5 °F 33.3 °F 29.97 in North 4.6 mph 11 mph 75.8% 0.00 in 155 W/m2
10:49 39.7 °F 33.4 °F 29.97 in NW 5.4 mph 12 mph 75.4% 0.00 in 162 W/m2
10:54 39.7 °F 33.3 °F 29.97 in NNW 5.4 mph 9 mph 75% 0.00 in 169 W/m2
10:59 39.7 °F 33.3 °F 29.97 in NNW 4.6 mph 12 mph 75% 0.00 in 174 W/m2
11:04 39.8 °F 33.3 °F 29.97 in NW 5 mph 10 mph 74.8% 0.00 in 179 W/m2
11:09 39.9 °F 33.3 °F 29.97 in North 6.2 mph 14 mph 74.4% 0.00 in 183 W/m2
11:14 40.1 °F 33.5 °F 29.97 in NNW 3.3 mph 9 mph 74.6% 0.00 in 190 W/m2
11:19 40.6 °F 33.8 °F 29.97 in NNW 1.8 mph 7 mph 74.2% 0.00 in 192 W/m2
11:24 41.4 °F 34.2 °F 29.97 in NNW 2.8 mph 10 mph 72.8% 0.00 in 199 W/m2
11:29 41 °F 33.6 °F 29.97 in North 4.5 mph 11 mph 72% 0.00 in 202 W/m2
11:34 40.7 °F 33 °F 29.97 in North 10.4 mph 15 mph 71.2% 0.00 in 209 W/m2
11:39 40.3 °F 32.7 °F 29.97 in NNW 7.8 mph 15 mph 71.6% 0.00 in 209 W/m2
11:44 40.5 °F 33.1 °F 29.97 in NNW 6.7 mph 15 mph 72% 0.00 in 211 W/m2
11:49 40.6 °F 33 °F 29.97 in North 5.2 mph 10 mph 71.6% 0.00 in 211 W/m2
11:54 41.3 °F 33.7 °F 29.97 in NNW 5.4 mph 10 mph 71.6% 0.00 in 213 W/m2
11:59 40.8 °F 32.8 °F 29.96 in NNW 6.7 mph 13 mph 70.4% 0.00 in 216 W/m2
12:04 40.6 °F 32.6 °F 29.96 in North 8.2 mph 19 mph 70.2% 0.01 in 221 W/m2
12:09 40.6 °F 32.6 °F 29.97 in North 7.6 mph 13 mph 70.2% 0.01 in 218 W/m2
12:14 41 °F 32.9 °F 29.97 in NW 5.3 mph 15 mph 70.2% 0.01 in 218 W/m2
12:19 41.1 °F 33 °F 29.97 in NW 2.8 mph 9 mph 70% 0.01 in 220 W/m2
12:24 41.4 °F 33.2 °F 29.97 in North 4.4 mph 14 mph 69.8% 0.01 in 223 W/m2
12:29 41.6 °F 33.2 °F 29.97 in NW 5.1 mph 11 mph 69.4% 0.01 in 229 W/m2
12:34 41.7 °F 33.3 °F 29.98 in NNW 3.7 mph 9 mph 69.4% 0.01 in 229 W/m2
12:39 41.5 °F 32.9 °F 29.98 in North 2.3 mph 11 mph 68.6% 0.01 in 223 W/m2
12:44 41.6 °F 32.9 °F 29.98 in Calm   7 mph 68.6% 0.01 in 214 W/m2
12:49 41.5 °F 32.6 °F 29.97 in NNW 4.2 mph 11 mph 68% 0.01 in 213 W/m2
12:54 41.3 °F 32.6 °F 29.98 in NNW 6.2 mph 11 mph 68.4% 0.01 in 214 W/m2
12:59 41.2 °F 32.5 °F 29.98 in NW 3.5 mph 11 mph 68.2% 0.01 in 209 W/m2
13:04 41.5 °F 32.7 °F 29.98 in Calm   7 mph 68.2% 0.01 in 204 W/m2
13:09 41.6 °F 32.7 °F 29.98 in NW 0.4 mph 7 mph 68.2% 0.00 in 200 W/m2
13:14 41.4 °F 32.7 °F 29.98 in NNW 3.7 mph 11 mph 68.4% 0.00 in 199 W/m2
13:19 41.6 °F 32.9 °F 29.98 in NNW 4.8 mph 10 mph 68.6% 0.00 in 193 W/m2
13:24 41.4 °F 32.9 °F 29.98 in NW 6.7 mph 11 mph 68.8% 0.00 in 190 W/m2
13:29 41.4 °F 32.7 °F 29.98 in NW 9.8 mph 14 mph 68.4% 0.00 in 185 W/m2
13:34 41.4 °F 32.8 °F 29.98 in NW 5.3 mph 14 mph 68.8% 0.00 in 181 W/m2
13:39 41.5 °F 33.2 °F 29.98 in NW 3.6 mph 9 mph 69.2% 0.00 in 178 W/m2
13:44 41.7 °F 32.9 °F 29.98 in NNW 4.6 mph 13 mph 68.4% 0.00 in 186 W/m2
13:49 42.1 °F 33.3 °F 29.98 in North 4.5 mph 12 mph 68.6% 0.00 in 207 W/m2
13:54 42.5 °F 33.7 °F 29.98 in NNW 3.4 mph 10 mph 68.4% 0.00 in 209 W/m2
13:59 42.2 °F 33 °F 29.98 in NNW 4.3 mph 12 mph 67.4% 0.00 in 220 W/m2
14:04 42 °F 33 °F 29.98 in North 2.1 mph 7 mph 68% 0.00 in 213 W/m2
14:09 42 °F 33 °F 29.98 in NNW 3 mph 7 mph 68.3% 0.00 in 204 W/m2
14:14 41.9 °F 32.9 °F 29.98 in NNW 1.4 mph 8 mph 68% 0.00 in 139 W/m2
14:19 41.7 °F 33.1 °F 29.99 in North 0.2 mph 3 mph 69% 0.00 in 113 W/m2
14:24 41.7 °F 33.1 °F 29.99 in NNW 4.1 mph 8 mph 69% 0.00 in 93 W/m2
14:29 41.4 °F 33 °F 30.00 in NNW 4 mph 8 mph 69.2% 0.00 in 93 W/m2
14:34 41.4 °F 33.3 °F 30.00 in NNW 2.1 mph 7 mph 70% 0.00 in 91 W/m2
14:39 41.5 °F 33.5 °F 30.00 in NNW 1.4 mph 7 mph 70.4% 0.00 in 139 W/m2
14:44 42.2 °F 34.1 °F 30.00 in Calm   3 mph 70.6% 0.00 in 139 W/m2
14:49 42.3 °F 33.7 °F 29.99 in NNW 0.9 mph 6 mph 69% 0.00 in 123 W/m2
14:54 41.7 °F 33.3 °F 29.98 in NW 1.8 mph 8 mph 69.4% 0.00 in 105 W/m2
14:59 41.5 °F 33.3 °F 29.99 in NNW 1.4 mph 8 mph 69.8% 0.00 in 83 W/m2
15:04 41.4 °F 33.3 °F 29.99 in NW 4.6 mph 8 mph 70% 0.00 in 53 W/m2
15:09 41.2 °F 33.1 °F 29.99 in NW 3.2 mph 7 mph 70% 0.00 in 40 W/m2
15:14 41.2 °F 33.1 °F 30.00 in NNE 1.2 mph 9 mph 70% 0.00 in 42 W/m2
15:19 41 °F 33.3 °F 29.99 in NNE 0.4 mph 3 mph 71% 0.00 in 35 W/m2
15:24 40.8 °F 33.1 °F 29.99 in North 1 mph 10 mph 71% 0.00 in 33 W/m2
15:29 40.6 °F 32.7 °F 29.99 in NNW 4.4 mph 11 mph 70.6% 0.00 in 33 W/m2
15:34 40.6 °F 32.8 °F 30.00 in NNW 0.6 mph 6 mph 71% 0.00 in 33 W/m2
15:39 40.5 °F 32.7 °F 30.00 in NNW 1.8 mph 7 mph 71% 0.00 in 25 W/m2
15:44 40.3 °F 32.5 °F 30.00 in Calm   3 mph 71% 0.00 in 18 W/m2
15:49 40.1 °F 32.5 °F 30.00 in Calm     71.2% 0.00 in 16 W/m2
15:54 39.9 °F 32.4 °F 30.00 in Calm     71.8% 0.00 in 12 W/m2
15:59 39.8 °F 32.4 °F 30.01 in Calm     72% 0.00 in 7 W/m2
16:04 39.7 °F 32.5 °F 30.01 in Calm     72.2% 0.00 in 5 W/m2
16:08 39.6 °F 32.5 °F 30.01 in Calm     73% 0.00 in 0 W/m2
16:14 39.5 °F 32.8 °F 30.01 in Calm     74% 0.00 in 0 W/m2
16:19 39.2 °F 32.7 °F 30.01 in Calm     74.6% 0.00 in 0 W/m2
16:24 38.7 °F 32.4 °F 30.01 in Calm     75% 0.00 in 0 W/m2
16:29 38.3 °F 32.3 °F 30.01 in Calm     75.8% 0.00 in 0 W/m2
16:34 37.8 °F 31.8 °F 30.01 in Calm     76% 0.00 in 0 W/m2
16:39 37.3 °F 31.6 °F 30.01 in Calm     77% 0.00 in 0 W/m2
16:44 36.9 °F 31.4 °F 30.00 in Calm     77.5% 0.00 in 0 W/m2
16:49 36.6 °F 31.2 °F 30.01 in Calm     78% 0.00 in 0 W/m2
16:54 36.3 °F 31.1 °F 30.01 in Calm     78.6% 0.00 in 0 W/m2
16:59 35.8 °F 30.8 °F 30.01 in Calm     79% 0.00 in 0 W/m2
17:04 35.3 °F 30.3 °F 30.01 in Calm     79% 0.00 in 0 W/m2
17:09 35.2 °F 30.6 °F 30.01 in Calm     80% 0.00 in 0 W/m2
17:14 35.1 °F 30.5 °F 30.01 in Calm     80% 0.00 in 0 W/m2
17:19 35.1 °F 30.5 °F 30.01 in Calm     80.4% 0.00 in 0 W/m2
17:24 34.6 °F 30.1 °F 30.01 in Calm     80.6% 0.00 in 0 W/m2
17:29 34.5 °F 30.2 °F 30.01 in Calm     81% 0.00 in 0 W/m2
17:34 34.3 °F 30.3 °F 30.01 in Calm     81.8% 0.00 in 0 W/m2
17:39 34.3 °F 30.4 °F 30.01 in Calm     82% 0.00 in 0 W/m2
17:44 34.3 °F 30.5 °F 30.01 in Calm     83% 0.00 in 0 W/m2
17:49 34.2 °F 30.5 °F 30.02 in Calm     83% 0.00 in 0 W/m2
17:54 34.2 °F 30.4 °F 30.03 in Calm     83% 0.00 in 0 W/m2
17:59 34.2 °F 30.6 °F 30.02 in Calm     83.8% 0.00 in 0 W/m2
18:04 34.2 °F 30.7 °F 30.02 in Calm     84% 0.00 in 0 W/m2
18:09 34 °F 30.6 °F 30.03 in Calm     84% 0.00 in 0 W/m2
18:14 33.8 °F 30.4 °F 30.02 in Calm     84% 0.00 in 0 W/m2
18:19 33.4 °F 30.3 °F 30.02 in Calm     84.6% 0.00 in 0 W/m2
18:24 33.3 °F 30.2 °F 30.02 in Calm     85% 0.00 in 0 W/m2
18:29 33.3 °F 30.2 °F 30.02 in Calm     85% 0.00 in 0 W/m2
18:34 33.2 °F 30.1 °F 30.02 in Calm     85% 0.00 in 0 W/m2
18:39 33.1 °F 30.2 °F 30.02 in Calm     85.8% 0.00 in 0 W/m2
18:44 32.8 °F 29.9 °F 30.02 in Calm     86% 0.00 in 0 W/m2
18:49 32.7 °F 29.8 °F 30.03 in Calm     86% 0.00 in 0 W/m2
18:54 32.6 °F 29.8 °F 30.03 in Calm     86% 0.00 in 0 W/m2
18:59 32.5 °F 29.6 °F 30.03 in Calm     86% 0.00 in 0 W/m2
19:04 32.5 °F 29.7 °F 30.03 in Calm     86% 0.00 in 0 W/m2
19:09 32.4 °F 29.6 °F 30.03 in Calm     86.4% 0.00 in 0 W/m2
19:14 32.3 °F 29.8 °F 30.02 in Calm     87% 0.00 in 0 W/m2
19:19 32.4 °F 29.8 °F 30.02 in Calm     87% 0.00 in 0 W/m2
19:24 32.2 °F 29.7 °F 30.02 in Calm     87% 0.00 in 0 W/m2
19:29 32.2 °F 29.7 °F 30.01 in Calm     87% 0.00 in 0 W/m2
19:34 32 °F 29.5 °F 30.01 in Calm     87% 0.00 in 0 W/m2
19:39 31.9 °F 29.4 °F 30.00 in Calm     87% 0.00 in 0 W/m2
19:44 32 °F 29.5 °F 29.99 in Calm     87% 0.00 in 0 W/m2
19:49 32.2 °F 29.8 °F 29.99 in Calm     87.5% 0.00 in 0 W/m2
19:54 32.1 °F 29.7 °F 29.99 in Calm     87.8% 0.00 in 0 W/m2
19:59 31.8 °F 29.3 °F 29.99 in Calm     87.2% 0.00 in 0 W/m2
20:04 31.8 °F 29.5 °F 29.99 in NNW 0.6 mph 4 mph 88% 0.00 in 0 W/m2
20:09 31.8 °F 29.5 °F 29.99 in NNW 0.2 mph 2 mph 88% 0.00 in 0 W/m2
20:14 31.8 °F 29.5 °F 29.99 in Calm   1 mph 88% 0.00 in 0 W/m2
20:19 32 °F 29.7 °F 29.99 in Calm     88% 0.00 in 0 W/m2
20:24 32.2 °F 29.8 °F 29.99 in Calm     88% 0.00 in 0 W/m2
20:29 32.2 °F 29.8 °F 29.99 in Calm     88% 0.00 in 0 W/m2
20:34 32.1 °F 29.8 °F 29.99 in Calm     88% 0.00 in 0 W/m2
20:39 31.8 °F 29.5 °F 29.98 in Calm     88% 0.00 in 0 W/m2
20:44 31.8 °F 29.5 °F 29.98 in Calm     88% 0.00 in 0 W/m2
20:49 31.6 °F 29.2 °F 29.99 in Calm     88% 0.00 in 0 W/m2
20:54 31.5 °F 29.1 °F 29.98 in Calm     88% 0.00 in 0 W/m2
20:59 31.5 °F 29.1 °F 29.98 in Calm     88% 0.00 in 0 W/m2
21:04 31.5 °F 29.1 °F 29.98 in Calm     88% 0.00 in 0 W/m2
21:09 31.5 °F 29.2 °F 29.98 in Calm     88% 0.00 in 0 W/m2
21:14 31.6 °F 29.3 °F 29.98 in Calm     88% 0.00 in 0 W/m2
21:19 31.6 °F 29.3 °F 29.98 in Calm     88% 0.00 in 0 W/m2
21:24 31.7 °F 29.7 °F 29.98 in Calm     88.8% 0.00 in 0 W/m2
21:29 31.8 °F 29.8 °F 29.98 in Calm     89% 0.00 in 0 W/m2
21:34 31.9 °F 29.9 °F 29.97 in Calm     89% 0.00 in 0 W/m2
21:39 32 °F 30 °F 29.98 in Calm     89% 0.00 in 0 W/m2
21:44 32 °F 30 °F 29.98 in Calm     89% 0.00 in 0 W/m2
21:49 32.2 °F 30.2 °F 29.98 in Calm     89% 0.00 in 0 W/m2
21:54 32.2 °F 30.2 °F 29.98 in Calm     89% 0.00 in 0 W/m2
21:59 32.3 °F 30.3 °F 29.98 in Calm     89% 0.00 in 0 W/m2
22:04 32.4 °F 30.5 °F 29.98 in Calm     89% 0.00 in 0 W/m2
22:09 32.6 °F 30.6 °F 29.99 in Calm     89% 0.00 in 0 W/m2
22:14 32.9 °F 30.9 °F 29.99 in Calm     89% 0.00 in 0 W/m2
22:19 33.2 °F 31.2 °F 29.98 in Calm     89% 0.00 in 0 W/m2
22:24 33.4 °F 31.5 °F 29.98 in Calm     89% 0.00 in 0 W/m2
22:29 33.7 °F 31.7 °F 29.98 in Calm     89% 0.00 in 0 W/m2
22:34 34 °F 32 °F 29.97 in Calm     89% 0.00 in 0 W/m2
22:39 34 °F 32 °F 29.97 in Calm     89% 0.00 in 0 W/m2
22:44 34 °F 32 °F 29.96 in Calm     89% 0.00 in 0 W/m2
22:49 34.1 °F 32.1 °F 29.96 in Calm     89% 0.00 in 0 W/m2
22:54 34.2 °F 32.1 °F 29.96 in Calm     88.8% 0.00 in 0 W/m2
22:59 34.2 °F 32.2 °F 29.96 in Calm     89% 0.00 in 0 W/m2
23:04 34.2 °F 32.1 °F 29.96 in Calm     88.6% 0.00 in 0 W/m2
23:09 34.3 °F 32 °F 29.96 in Calm     88% 0.00 in 0 W/m2
23:14 34.3 °F 32 °F 29.95 in Calm     88% 0.00 in 0 W/m2
23:19 34.4 °F 32.1 °F 29.95 in NNW 0.6 mph 3 mph 88% 0.00 in 0 W/m2
23:24 34.7 °F 32.3 °F 29.94 in NNW 1.4 mph 3 mph 88% 0.00 in 0 W/m2
23:29 35 °F 32.6 °F 29.94 in NNW 0.8 mph 3 mph 88% 0.00 in 0 W/m2
23:34 35.1 °F 32.7 °F 29.93 in NNW 0.6 mph 2 mph 87.6% 0.00 in 0 W/m2
23:39 35.4 °F 32.9 °F 29.93 in NNW 0.9 mph 4 mph 87% 0.00 in 0 W/m2
23:44 35.7 °F 33.1 °F 29.93 in Calm   3 mph 86.8% 0.00 in 0 W/m2
23:49 35.8 °F 33 °F 29.93 in Calm     86.2% 0.00 in 0 W/m2
23:54 35.9 °F 33 °F 29.93 in NNW 0.4 mph 5 mph 86% 0.01 in 0 W/m2
23:59 36 °F 33.2 °F 29.93 in NW 3.4 mph 9 mph 86% 0.01 in 0 W/m2
Bath Spa Weather
Compliments of Weather Underground - 2 mb